Terminal Aerodrome Forecast
Issued by NWS Sterling, VA

Current Version | Previous Version | Text Only | Print | Product List | Glossary Off
Versions: 1 2 3 4 5 6 7 8 9 10 11 12 13 14

393
FTUS41 KLWX 161720
TAFMRB
TAF
KMRB 161720Z 1618/1718 13004KT 6SM -SN OVC050
     FM162200 VRB03KT 3SM -SN OVC025
     FM170100 33004KT 1SM -SN OVC008
     FM170800 32006KT 3SM -SN OVC015
     FM171200 32010KT P6SM OVC045
     FM171700 31012G20KT P6SM SCT250=

USA.gov is the U.S. government's official web portal to all federal, state and local government web resources and services.